Rick Husband Amarillo International Airport
KAMA : now visible

Airfield :











YOU CAN JOIN US ON...

 
LOGIN :

Register | Disclaimer

   EN    FR    IT 

 









Legend :    VFR   Marginal VFR   IFR   Intensive IFR   Very Intensive IFR
Visi :
Ceiling :
>= 8 km
>= 3000ft
5 to 8 km
1000 to 3000 ft
1500m to 5 km
500 to 1000 ft
800 to 1500m
200 to 500 ft
< 800m
< 200 ft
Symbols :   Thunderstorms  Fog  Heavy snow  Heavy precipitations  Wind > 20 kt






- Airport Elevation : 3607 ft
- IATA code : AMA


KAMA - Rick Husband Amarillo International

CURRENT METAR :
  • 281753Z 27015KT 10SM CLR 14/M07 A2987 RMK AO2 SLP086 T01391067 10144 20044 51004

EXPIRED METARs :
  • 281653Z 28014KT 10SM CLR 12/M06 A2987 RMK AO2 PK WND 29028/1631 SLP083 T01221056
  • 281553Z 29018G24KT 10SM CLR 11/M04 A2986 RMK AO2 PK WND 29028/1458 SLP083 T01111039

TAF KAMA
Valid from the 28 at 18:00 until the 29 at 18:00 UTC


281720Z 2818/2918 28015G25KT P6SM SKC
FM290100 02010KT P6SM FEW250
FM291500 19006KT P6SM BKN250



MET'MAP, your aeronautical weather chart ! - Copyright ORBIFLY December 2007 - Disclaimer

ORBIFLY MET'MAP TEAM :

Programming & Development : Alexandra Zaïnal
Concept & original design : Baudouin d'Aumeries
Assistance for programming : Marc-Olivier Méhu
Technical & hardware support : Manuel Goepfert

Contact : metmap@orbifly.com




SOURCES & CREDITS :

   NOAA       Earth
Advisory